Time;durP1;ratioP1;P1;durP2;ratioP2;P2;SDS_P1;SDS_P2;PMS_P1;PMS_P2;Temp;Humidity;BMP_temperature;BMP_pressure;BME280_temperature;BME280_humidity;BME280_pressure;Samples;Min_cycle;Max_cycle;Signal;HPM_P1;HPM_P2
2021/10/08 00:02:03;;;;;;;17.97;7.40;;;;;;;;;;10483804;28;20427;-71
2021/10/08 00:07:06;;;;;;;17.33;7.43;;;;;;;;;;10487825;28;20048;-71
2021/10/08 00:12:09;;;;;;;18.80;8.05;;;;;;;;;;10486917;28;20040;-72
2021/10/08 00:17:13;;;;;;;22.20;7.40;;;;;;;;;;10480833;28;20040;-71
2021/10/08 00:22:16;;;;;;;20.50;8.55;;;;;;;;;;10487333;28;20454;-68
2021/10/08 00:27:19;;;;;;;18.35;7.97;;;;;;;;;;10486393;28;20076;-71
2021/10/08 00:32:23;;;;;;;18.83;8.00;;;;;;;;;;10481244;28;20033;-71
2021/10/08 00:37:26;;;;;;;27.05;8.70;;;;;;;;;;10485845;28;20037;-71
2021/10/08 00:42:30;;;;;;;17.73;6.78;;;;;;;;;;10491124;28;20507;-70
2021/10/08 00:47:34;;;;;;;20.75;7.18;;;;;;;;;;10486321;28;20154;-71
2021/10/08 00:52:37;;;;;;;20.08;7.80;;;;;;;;;;10487761;28;20299;-70
2021/10/08 00:57:40;;;;;;;24.17;8.40;;;;;;;;;;10480602;28;20052;-71
2021/10/08 01:02:45;;;;;;;21.52;8.63;;;;;;;;;;10485262;28;20041;-68
2021/10/08 01:07:49;;;;;;;21.27;8.70;;;;;;;;;;10480980;28;20409;-72
2021/10/08 01:12:52;;;;;;;19.02;8.23;;;;;;;;;;10486139;28;20488;-71
2021/10/08 01:17:56;;;;;;;18.52;7.85;;;;;;;;;;10477440;28;20056;-71
2021/10/08 01:23:01;;;;;;;19.05;7.43;;;;;;;;;;10485568;28;20094;-72
2021/10/08 01:28:05;;;;;;;18.92;8.40;;;;;;;;;;10484614;28;20044;-71
2021/10/08 01:33:08;;;;;;;21.50;8.40;;;;;;;;;;10487407;28;20044;-70
2021/10/08 01:38:12;;;;;;;25.30;8.77;;;;;;;;;;10481875;28;20208;-71
2021/10/08 01:43:15;;;;;;;20.80;8.52;;;;;;;;;;10486564;28;20389;-72
2021/10/08 01:48:18;;;;;;;21.97;8.07;;;;;;;;;;10482904;28;20135;-72
2021/10/08 01:53:22;;;;;;;21.58;8.73;;;;;;;;;;10483712;28;20041;-71
2021/10/08 01:58:25;;;;;;;20.73;8.38;;;;;;;;;;10478858;28;20105;-70
2021/10/08 02:03:28;;;;;;;23.90;9.05;;;;;;;;;;10484253;28;20120;-71
2021/10/08 02:08:32;;;;;;;19.13;8.30;;;;;;;;;;10479352;28;20135;-70
2021/10/08 02:13:35;;;;;;;19.83;8.20;;;;;;;;;;10488745;28;20039;-70
2021/10/08 02:18:37;;;;;;;23.75;8.70;;;;;;;;;;10478828;28;20097;-70
2021/10/08 02:23:48;;;;;;;22.27;8.82;;;;;;;;;;10482693;28;20097;-70
2021/10/08 02:28:51;;;;;;;23.50;8.77;;;;;;;;;;10480086;28;20078;-71
2021/10/08 02:33:53;;;;;;;21.73;8.55;;;;;;;;;;10475136;28;20065;-71
2021/10/08 02:38:58;;;;;;;23.17;8.82;;;;;;;;;;10482801;28;20074;-71
2021/10/08 02:44:01;;;;;;;23.50;9.15;;;;;;;;;;10483195;28;20154;-72
2021/10/08 02:49:04;;;;;;;26.48;10.40;;;;;;;;;;10481453;28;20040;-70
2021/10/08 02:54:08;;;;;;;24.25;8.93;;;;;;;;;;10484960;28;20060;-72
2021/10/08 02:59:11;;;;;;;26.60;9.98;;;;;;;;;;10480732;28;20067;-71
2021/10/08 03:04:14;;;;;;;24.83;9.82;;;;;;;;;;10477877;28;20086;-69
2021/10/08 03:09:18;;;;;;;25.48;9.63;;;;;;;;;;10478230;28;20072;-70
2021/10/08 03:14:21;;;;;;;19.77;8.60;;;;;;;;;;10482462;28;20041;-70
2021/10/08 03:19:23;;;;;;;26.80;10.13;;;;;;;;;;10476517;28;20435;-72
2021/10/08 03:24:27;;;;;;;23.42;9.10;;;;;;;;;;10483345;28;20115;-70
2021/10/08 03:29:30;;;;;;;21.20;8.25;;;;;;;;;;10490454;28;20331;-71
2021/10/08 03:34:33;;;;;;;24.58;8.82;;;;;;;;;;10489169;28;20059;-72
2021/10/08 03:39:40;;;;;;;23.33;8.75;;;;;;;;;;10490695;28;20132;-71
2021/10/08 03:44:45;;;;;;;22.45;9.07;;;;;;;;;;10486654;28;20040;-70
2021/10/08 03:49:48;;;;;;;23.25;8.68;;;;;;;;;;10485774;28;20041;-70
2021/10/08 03:54:52;;;;;;;23.10;8.88;;;;;;;;;;10489253;28;20120;-70
2021/10/08 03:59:55;;;;;;;19.80;8.85;;;;;;;;;;10492607;28;20056;-71
2021/10/08 04:04:58;;;;;;;19.63;8.85;;;;;;;;;;10488843;28;20105;-72
2021/10/08 04:10:02;;;;;;;17.85;8.05;;;;;;;;;;10495999;28;20054;-70
2021/10/08 04:15:06;;;;;;;20.45;9.00;;;;;;;;;;10487631;28;20039;-68
2021/10/08 04:20:09;;;;;;;24.55;8.82;;;;;;;;;;10487165;28;20073;-72
2021/10/08 04:25:13;;;;;;;24.52;9.25;;;;;;;;;;10487290;28;20117;-71
2021/10/08 04:30:16;;;;;;;17.90;8.45;;;;;;;;;;10486100;28;20044;-71
2021/10/08 04:35:18;;;;;;;23.73;8.30;;;;;;;;;;10487654;28;20064;-71
2021/10/08 04:40:23;;;;;;;19.13;8.55;;;;;;;;;;10486431;28;20048;-69
2021/10/08 04:45:25;;;;;;;17.25;7.78;;;;;;;;;;10485842;28;20040;-70
2021/10/08 04:50:28;;;;;;;22.35;8.20;;;;;;;;;;10487808;28;20071;-70
2021/10/08 04:55:32;;;;;;;25.30;9.00;;;;;;;;;;10481009;28;20044;-70
2021/10/08 05:00:36;;;;;;;25.73;9.23;;;;;;;;;;10486038;28;20065;-70
2021/10/08 05:05:38;;;;;;;19.23;7.87;;;;;;;;;;10485928;28;20040;-70
2021/10/08 05:10:43;;;;;;;23.63;9.13;;;;;;;;;;10482408;28;20036;-69
2021/10/08 05:15:46;;;;;;;19.15;8.00;;;;;;;;;;10483221;28;20124;-70
2021/10/08 05:20:48;;;;;;;17.60;7.70;;;;;;;;;;10484373;28;20120;-70
2021/10/08 05:25:53;;;;;;;18.42;8.32;;;;;;;;;;10483484;28;20044;-71
2021/10/08 05:30:56;;;;;;;21.48;8.52;;;;;;;;;;10484520;28;20422;-70
2021/10/08 05:35:59;;;;;;;19.63;9.00;;;;;;;;;;10483851;28;20037;-67
2021/10/08 05:41:03;;;;;;;22.43;9.10;;;;;;;;;;10487962;28;20052;-70
2021/10/08 05:46:06;;;;;;;28.17;9.60;;;;;;;;;;10480083;28;20059;-72
2021/10/08 05:51:09;;;;;;;22.55;9.75;;;;;;;;;;10480644;28;20105;-71
2021/10/08 05:56:13;;;;;;;25.40;9.80;;;;;;;;;;10474048;28;20029;-70
2021/10/08 06:01:16;;;;;;;26.20;9.63;;;;;;;;;;10478834;28;20041;-68
2021/10/08 06:06:19;;;;;;;26.70;9.90;;;;;;;;;;10483827;28;20119;-73
2021/10/08 06:11:23;;;;;;;28.20;10.80;;;;;;;;;;10471793;28;20299;-70
2021/10/08 06:16:26;;;;;;;25.33;10.63;;;;;;;;;;10472433;28;20040;-70
2021/10/08 06:21:29;;;;;;;25.13;10.10;;;;;;;;;;10474194;28;20577;-71
2021/10/08 06:26:33;;;;;;;27.73;10.25;;;;;;;;;;10477103;28;20113;-67
2021/10/08 06:31:36;;;;;;;27.85;10.20;;;;;;;;;;10480542;28;20098;-69
2021/10/08 06:36:39;;;;;;;26.52;10.32;;;;;;;;;;10479907;28;20048;-68
2021/10/08 06:41:43;;;;;;;31.55;12.57;;;;;;;;;;10483014;28;20045;-71
2021/10/08 06:46:46;;;;;;;33.67;11.85;;;;;;;;;;10479760;28;20119;-70
2021/10/08 06:51:48;;;;;;;24.67;10.00;;;;;;;;;;10482012;28;20422;-70
2021/10/08 06:56:52;;;;;;;30.52;11.45;;;;;;;;;;10479470;28;20043;-71
2021/10/08 07:01:55;;;;;;;32.60;11.18;;;;;;;;;;10481210;28;20048;-71
2021/10/08 07:06:58;;;;;;;30.38;11.30;;;;;;;;;;10472394;28;20517;-71
2021/10/08 07:12:02;;;;;;;26.77;10.23;;;;;;;;;;10483082;28;20184;-71
2021/10/08 07:17:05;;;;;;;33.00;11.55;;;;;;;;;;10475901;28;20354;-70
2021/10/08 07:22:11;;;;;;;33.23;12.20;;;;;;;;;;10477218;28;20055;-70
2021/10/08 07:27:15;;;;;;;34.25;12.80;;;;;;;;;;10476904;28;20051;-69
2021/10/08 07:32:18;;;;;;;33.17;12.00;;;;;;;;;;10477328;28;20075;-69
2021/10/08 07:37:20;;;;;;;38.70;12.73;;;;;;;;;;10474288;28;20166;-71
2021/10/08 07:42:25;;;;;;;40.92;13.82;;;;;;;;;;10475025;28;20058;-69
2021/10/08 07:47:28;;;;;;;34.85;11.55;;;;;;;;;;10471299;28;20056;-68
2021/10/08 07:52:31;;;;;;;36.13;11.43;;;;;;;;;;10476262;28;20131;-68
2021/10/08 07:57:35;;;;;;;33.75;10.90;;;;;;;;;;10474455;28;20341;-67
2021/10/08 08:02:38;;;;;;;37.30;12.23;;;;;;;;;;10437251;28;20087;-69
2021/10/08 08:07:41;;;;;;;35.92;11.70;;;;;;;;;;10439514;28;20566;-70
2021/10/08 08:12:45;;;;;;;31.90;10.77;;;;;;;;;;10447964;28;20048;-70
2021/10/08 08:17:48;;;;;;;33.67;11.52;;;;;;;;;;10443705;28;20369;-70
2021/10/08 08:22:51;;;;;;;36.45;10.93;;;;;;;;;;10446113;28;20098;-71
2021/10/08 08:27:55;;;;;;;35.78;11.35;;;;;;;;;;10446273;28;20107;-71
2021/10/08 08:32:58;;;;;;;45.72;16.48;;;;;;;;;;10450635;28;20438;-68
2021/10/08 08:38:01;;;;;;;32.65;10.73;;;;;;;;;;10447131;28;20497;-71
2021/10/08 08:43:05;;;;;;;31.02;11.07;;;;;;;;;;10446132;28;20041;-69
2021/10/08 08:48:09;;;;;;;28.77;9.63;;;;;;;;;;10443292;28;20048;-70
2021/10/08 08:53:13;;;;;;;28.98;10.30;;;;;;;;;;10443607;28;20071;-69
2021/10/08 08:58:18;;;;;;;24.58;8.57;;;;;;;;;;10445407;28;20075;-68
2021/10/08 09:03:21;;;;;;;24.65;9.73;;;;;;;;;;10445335;28;20099;-69
2021/10/08 09:08:30;;;;;;;24.63;8.95;;;;;;;;;;10444706;28;20387;-70
2021/10/08 09:13:35;;;;;;;23.38;9.55;;;;;;;;;;10445717;28;20367;-70
2021/10/08 09:18:41;;;;;;;21.65;8.25;;;;;;;;;;10443938;28;20531;-70
2021/10/08 09:23:46;;;;;;;21.15;8.52;;;;;;;;;;10446528;28;20101;-67
2021/10/08 09:28:55;;;;;;;21.77;8.35;;;;;;;;;;10443340;28;20064;-67
2021/10/08 09:34:11;;;;;;;20.33;7.93;;;;;;;;;;10444464;28;20045;-69
2021/10/08 09:39:18;;;;;;;16.15;7.82;;;;;;;;;;10442950;28;20041;-69
2021/10/08 09:44:23;;;;;;;13.48;6.30;;;;;;;;;;10442181;28;20048;-69
2021/10/08 09:49:26;;;;;;;17.80;8.00;;;;;;;;;;10443596;28;20497;-69
2021/10/08 09:54:47;;;;;;;15.20;6.47;;;;;;;;;;10441302;28;20320;-70
2021/10/08 09:59:52;;;;;;;14.25;6.32;;;;;;;;;;10444599;28;20135;-70
2021/10/08 10:04:55;;;;;;;14.90;6.60;;;;;;;;;;10444033;28;20037;-68
2021/10/08 10:10:02;;;;;;;13.23;6.43;;;;;;;;;;10446302;28;20047;-69
2021/10/08 10:15:14;;;;;;;11.85;5.70;;;;;;;;;;10458306;28;20417;-69
2021/10/08 10:20:17;;;;;;;10.02;5.15;;;;;;;;;;10462271;28;20048;-68
2021/10/08 10:25:21;;;;;;;11.25;5.28;;;;;;;;;;10459684;28;20186;-68
2021/10/08 10:30:25;;;;;;;11.13;5.20;;;;;;;;;;10444760;28;20045;-70
2021/10/08 10:35:45;;;;;;;7.03;3.80;;;;;;;;;;10444971;28;20474;-69
2021/10/08 10:40:48;;;;;;;9.73;4.70;;;;;;;;;;10444076;28;20067;-70
2021/10/08 10:46:17;;;;;;;9.50;4.88;;;;;;;;;;10436928;28;20136;-70
2021/10/08 10:51:20;;;;;;;10.43;5.30;;;;;;;;;;10443016;28;20111;-68
2021/10/08 10:56:42;;;;;;;10.13;5.10;;;;;;;;;;10441632;28;20044;-69
2021/10/08 11:01:59;;;;;;;8.40;4.65;;;;;;;;;;10443344;28;20067;-70
2021/10/08 11:07:08;;;;;;;9.05;4.38;;;;;;;;;;10441915;28;20388;-69
2021/10/08 11:12:30;;;;;;;7.45;4.00;;;;;;;;;;10443340;28;20418;-69
2021/10/08 11:17:52;;;;;;;7.03;3.47;;;;;;;;;;10443129;28;20048;-70
2021/10/08 11:22:58;;;;;;;8.05;3.53;;;;;;;;;;10443055;28;20037;-69
2021/10/08 11:28:02;;;;;;;9.20;4.65;;;;;;;;;;10442896;28;20044;-71
2021/10/08 11:33:05;;;;;;;8.45;4.50;;;;;;;;;;10444576;28;20115;-72
2021/10/08 11:38:09;;;;;;;11.63;6.22;;;;;;;;;;10444091;28;20263;-70
2021/10/08 11:43:20;;;;;;;8.82;5.25;;;;;;;;;;10444011;28;20081;-70
2021/10/08 11:48:24;;;;;;;10.38;5.72;;;;;;;;;;10449456;28;20041;-69
2021/10/08 11:53:39;;;;;;;11.32;5.95;;;;;;;;;;10449235;28;20047;-68
2021/10/08 11:58:42;;;;;;;13.75;6.88;;;;;;;;;;10442133;28;20041;-69
2021/10/08 12:03:45;;;;;;;11.93;5.50;;;;;;;;;;10448664;28;20045;-70
2021/10/08 12:08:49;;;;;;;12.18;5.82;;;;;;;;;;10449645;28;20086;-71
2021/10/08 12:13:54;;;;;;;12.73;6.43;;;;;;;;;;10450952;28;20044;-70
2021/10/08 12:18:58;;;;;;;12.43;6.43;;;;;;;;;;10448779;28;20041;-70
2021/10/08 12:24:03;;;;;;;12.75;6.82;;;;;;;;;;10449857;28;20489;-69
2021/10/08 12:29:08;;;;;;;12.10;6.30;;;;;;;;;;10446371;28;20590;-69
2021/10/08 12:34:11;;;;;;;13.57;7.15;;;;;;;;;;10447941;28;20075;-67
2021/10/08 12:39:19;;;;;;;13.48;7.15;;;;;;;;;;10443694;28;20045;-69
2021/10/08 12:44:23;;;;;;;16.27;8.00;;;;;;;;;;10447496;28;20049;-68
2021/10/08 12:49:27;;;;;;;15.15;7.82;;;;;;;;;;10446779;28;20568;-67
2021/10/08 12:54:31;;;;;;;14.77;7.55;;;;;;;;;;10447286;28;20516;-69
2021/10/08 12:59:47;;;;;;;14.68;7.38;;;;;;;;;;10444934;28;20528;-70
2021/10/08 13:04:50;;;;;;;14.68;7.57;;;;;;;;;;10445679;28;20041;-69
2021/10/08 13:09:53;;;;;;;;;;;;;;;;;;10445392;28;20147;-67
2021/10/08 13:15:09;;;;;;;15.57;7.72;;;;;;;;;;10446341;28;19920;-70
2021/10/08 13:20:12;;;;;;;13.00;7.78;;;;;;;;;;10444647;28;20045;-70
2021/10/08 13:25:15;;;;;;;14.20;7.30;;;;;;;;;;10440431;28;20147;-70
2021/10/08 13:30:19;;;;;;;11.38;5.45;;;;;;;;;;10445284;28;20048;-70
2021/10/08 13:35:24;;;;;;;15.70;7.85;;;;;;;;;;10445124;28;20045;-69
2021/10/08 13:40:28;;;;;;;14.93;8.10;;;;;;;;;;10443862;28;20100;-69
2021/10/08 13:45:32;;;;;;;14.70;7.57;;;;;;;;;;10445269;28;20457;-72
2021/10/08 13:50:35;;;;;;;16.08;7.80;;;;;;;;;;10444031;28;20045;-70
2021/10/08 13:55:39;;;;;;;16.23;6.47;;;;;;;;;;10440239;28;20404;-68
2021/10/08 14:00:46;;;;;;;15.77;8.32;;;;;;;;;;10443799;28;20358;-67
2021/10/08 14:06:07;;;;;;;15.98;7.22;;;;;;;;;;10442844;28;20424;-71
2021/10/08 14:11:11;;;;;;;14.48;7.70;;;;;;;;;;10443194;28;20434;-77
2021/10/08 14:16:15;;;;;;;14.82;7.43;;;;;;;;;;10447218;28;20072;-74
2021/10/08 14:21:18;;;;;;;17.60;8.18;;;;;;;;;;10446495;28;20128;-72
2021/10/08 14:26:21;;;;;;;21.58;8.10;;;;;;;;;;10444630;28;20095;-71
2021/10/08 14:31:26;;;;;;;14.50;6.82;;;;;;;;;;10444415;28;20045;-70
2021/10/08 14:36:29;;;;;;;19.30;8.35;;;;;;;;;;10435640;28;20045;-71
2021/10/08 14:41:31;;;;;;;14.95;7.68;;;;;;;;;;10445015;28;20053;-70
2021/10/08 14:46:36;;;;;;;14.60;7.60;;;;;;;;;;10441479;28;20123;-69
2021/10/08 14:51:43;;;;;;;19.63;8.90;;;;;;;;;;10443750;28;20044;-71
2021/10/08 14:57:00;;;;;;;19.92;8.38;;;;;;;;;;10439995;28;20045;-70
2021/10/08 15:02:04;;;;;;;17.13;7.60;;;;;;;;;;10443241;28;20087;-70
2021/10/08 15:07:07;;;;;;;17.23;7.47;;;;;;;;;;10438975;28;20481;-69
2021/10/08 15:12:10;;;;;;;20.57;8.87;;;;;;;;;;10442305;28;20182;-70
2021/10/08 15:17:16;;;;;;;16.42;7.78;;;;;;;;;;10441061;28;20036;-70
2021/10/08 15:22:23;;;;;;;18.23;7.65;;;;;;;;;;10455073;28;20051;-70
2021/10/08 15:27:26;;;;;;;18.67;7.82;;;;;;;;;;10455735;28;20048;-70
2021/10/08 15:32:30;;;;;;;19.20;8.20;;;;;;;;;;10455890;28;20496;-70
2021/10/08 15:37:33;;;;;;;21.58;8.95;;;;;;;;;;10456229;28;20048;-69
2021/10/08 15:42:37;;;;;;;20.25;8.70;;;;;;;;;;10454642;28;20049;-70
2021/10/08 15:47:41;;;;;;;19.92;8.85;;;;;;;;;;10453893;28;20040;-70
2021/10/08 15:52:44;;;;;;;19.85;8.88;;;;;;;;;;10455654;28;20179;-70
2021/10/08 15:57:47;;;;;;;23.10;9.10;;;;;;;;;;10454619;28;20041;-68
2021/10/08 16:02:51;;;;;;;23.40;10.00;;;;;;;;;;10455047;28;20072;-69
2021/10/08 16:07:54;;;;;;;24.90;10.43;;;;;;;;;;10454237;28;20369;-70
2021/10/08 16:12:59;;;;;;;20.23;9.43;;;;;;;;;;10455850;28;20056;-69
2021/10/08 16:18:07;;;;;;;22.50;9.30;;;;;;;;;;10452513;28;20122;-71
2021/10/08 16:23:10;;;;;;;23.40;10.07;;;;;;;;;;10454333;28;20037;-69
2021/10/08 16:28:13;;;;;;;22.73;9.40;;;;;;;;;;10452612;28;20072;-70
2021/10/08 16:33:17;;;;;;;21.87;9.37;;;;;;;;;;10443541;28;20098;-70
2021/10/08 16:38:20;;;;;;;23.98;9.50;;;;;;;;;;10446411;28;20107;-69
2021/10/08 16:43:24;;;;;;;25.60;9.65;;;;;;;;;;10443706;28;20053;-67
2021/10/08 16:48:28;;;;;;;24.25;10.23;;;;;;;;;;10445520;28;20128;-70
2021/10/08 16:53:31;;;;;;;21.48;9.52;;;;;;;;;;10444836;28;20513;-73
2021/10/08 16:58:34;;;;;;;23.23;9.73;;;;;;;;;;10448230;28;20048;-74
2021/10/08 17:03:38;;;;;;;23.93;9.27;;;;;;;;;;10447766;28;20077;-71
2021/10/08 17:08:41;;;;;;;20.55;7.75;;;;;;;;;;10446615;28;20129;-70
2021/10/08 17:13:44;;;;;;;22.40;9.38;;;;;;;;;;10447526;28;20528;-71
2021/10/08 17:18:48;;;;;;;25.60;10.10;;;;;;;;;;10445864;28;20061;-71
2021/10/08 17:23:53;;;;;;;25.88;9.45;;;;;;;;;;10447383;28;20477;-67
2021/10/08 17:29:10;;;;;;;26.40;10.63;;;;;;;;;;10446738;28;20116;-69
2021/10/08 17:34:14;;;;;;;21.58;9.38;;;;;;;;;;10445535;28;20389;-71
2021/10/08 17:39:17;;;;;;;26.63;10.55;;;;;;;;;;10444286;28;20045;-70
2021/10/08 17:44:20;;;;;;;31.95;11.73;;;;;;;;;;10444539;28;20169;-70
2021/10/08 17:49:24;;;;;;;29.38;11.63;;;;;;;;;;10446845;28;20073;-72
2021/10/08 17:54:27;;;;;;;26.38;10.55;;;;;;;;;;10447721;28;20052;-71
2021/10/08 17:59:32;;;;;;;31.33;11.43;;;;;;;;;;10448134;28;20064;-71
2021/10/08 18:04:36;;;;;;;30.35;9.95;;;;;;;;;;10443613;28;20048;-68
2021/10/08 18:09:39;;;;;;;27.67;9.98;;;;;;;;;;10444395;28;20048;-67
2021/10/08 18:14:42;;;;;;;30.98;11.30;;;;;;;;;;10440410;28;20036;-69
2021/10/08 18:19:46;;;;;;;30.38;12.15;;;;;;;;;;10444698;28;20056;-69
2021/10/08 18:24:49;;;;;;;32.40;13.38;;;;;;;;;;10445708;28;20156;-72
2021/10/08 18:29:58;;;;;;;27.75;12.30;;;;;;;;;;10444861;28;20404;-71
2021/10/08 18:35:02;;;;;;;33.13;12.00;;;;;;;;;;10444699;28;20084;-69
2021/10/08 18:40:06;;;;;;;34.58;12.60;;;;;;;;;;10444304;28;20493;-71
2021/10/08 18:45:10;;;;;;;37.08;12.60;;;;;;;;;;10444452;28;20175;-68
2021/10/08 18:50:14;;;;;;;38.38;12.38;;;;;;;;;;10442777;28;20481;-70
2021/10/08 18:55:17;;;;;;;35.65;12.55;;;;;;;;;;10443755;28;20064;-70
2021/10/08 19:00:20;;;;;;;32.58;12.68;;;;;;;;;;10443362;28;20102;-69
2021/10/08 19:05:24;;;;;;;34.03;12.45;;;;;;;;;;10444425;28;20500;-69
2021/10/08 19:16:14;;;;;;;36.20;13.32;;;;;;;;;;10431866;28;20431;-69
2021/10/08 19:21:17;;;;;;;36.63;13.47;;;;;;;;;;10424920;28;20069;-69
2021/10/08 19:26:20;;;;;;;35.30;12.75;;;;;;;;;;10422359;28;20989;-70
2021/10/08 19:31:24;;;;;;;38.37;14.43;;;;;;;;;;10424705;28;20037;-67
2021/10/08 19:36:27;;;;;;;41.45;13.13;;;;;;;;;;10430944;28;20045;-70
2021/10/08 19:41:31;;;;;;;38.97;12.98;;;;;;;;;;10431664;28;20068;-70
2021/10/08 19:46:35;;;;;;;37.90;13.38;;;;;;;;;;10425149;28;20123;-70
2021/10/08 19:51:38;;;;;;;39.28;12.50;;;;;;;;;;10414230;28;20060;-70
2021/10/08 19:56:41;;;;;;;38.90;12.93;;;;;;;;;;10421658;28;20053;-70
2021/10/08 20:01:46;;;;;;;38.38;13.88;;;;;;;;;;10421806;28;20037;-69
2021/10/08 20:12:43;;;;;;;43.03;14.32;;;;;;;;;;10421744;28;20037;-70
2021/10/08 20:17:47;;;;;;;41.15;12.77;;;;;;;;;;10421316;28;20111;-71
2021/10/08 20:22:50;;;;;;;37.70;11.57;;;;;;;;;;10422530;28;20060;-71
2021/10/08 20:27:52;;;;;;;35.83;12.95;;;;;;;;;;10388234;28;20041;-68
2021/10/08 20:32:57;;;;;;;44.17;14.00;;;;;;;;;;10404233;28;20393;-70
2021/10/08 20:38:06;;;;;;;36.10;13.48;;;;;;;;;;10395015;28;20438;-71
2021/10/08 20:43:09;;;;;;;41.97;13.63;;;;;;;;;;10392471;28;20095;-71
2021/10/08 20:48:13;;;;;;;41.78;13.55;;;;;;;;;;10397383;28;20453;-70
2021/10/08 20:53:16;;;;;;;44.10;14.52;;;;;;;;;;10395872;28;20099;-70
2021/10/08 20:58:19;;;;;;;45.58;15.35;;;;;;;;;;10387666;28;20121;-71
2021/10/08 21:03:23;;;;;;;37.30;13.63;;;;;;;;;;10384800;28;20046;-69
2021/10/08 21:08:27;;;;;;;38.92;14.70;;;;;;;;;;10388907;28;20045;-70
2021/10/08 21:13:30;;;;;;;40.05;12.93;;;;;;;;;;10391812;28;20037;-70
2021/10/08 21:18:34;;;;;;;36.65;13.35;;;;;;;;;;10388109;28;20033;-67
2021/10/08 21:23:37;;;;;;;37.40;13.73;;;;;;;;;;10397084;28;20533;-69
2021/10/08 21:28:40;;;;;;;33.75;11.50;;;;;;;;;;10383197;28;20508;-69
2021/10/08 21:33:46;;;;;;;43.22;13.10;;;;;;;;;;10391650;28;20060;-71
2021/10/08 21:38:56;;;;;;;37.60;13.60;;;;;;;;;;10386309;28;20117;-71
2021/10/08 21:43:58;;;;;;;37.20;13.63;;;;;;;;;;10379401;28;20487;-70
2021/10/08 21:49:04;;;;;;;41.33;14.25;;;;;;;;;;10395336;28;20054;-69
2021/10/08 21:54:07;;;;;;;42.75;14.00;;;;;;;;;;10405642;28;20034;-70
2021/10/08 21:59:09;;;;;;;38.13;13.23;;;;;;;;;;10391862;28;20132;-70
2021/10/08 22:04:14;;;;;;;40.50;13.55;;;;;;;;;;10389228;28;20044;-71
2021/10/08 22:09:17;;;;;;;39.05;13.98;;;;;;;;;;10384150;28;20076;-69
2021/10/08 22:14:20;;;;;;;39.03;12.95;;;;;;;;;;10383746;28;20451;-70
2021/10/08 22:19:25;;;;;;;36.42;12.90;;;;;;;;;;10386878;28;20397;-68
2021/10/08 22:24:36;;;;;;;40.97;13.55;;;;;;;;;;10391524;28;20216;-70
2021/10/08 22:35:00;;;;;;;32.78;12.93;;;;;;;;;;10367583;28;20045;-71
2021/10/08 22:40:04;;;;;;;38.08;12.82;;;;;;;;;;10391216;28;20520;-70
2021/10/08 22:45:07;;;;;;;33.28;12.68;;;;;;;;;;10395133;28;20102;-69
2021/10/08 22:50:11;;;;;;;34.73;12.17;;;;;;;;;;10393441;28;20473;-70
2021/10/08 22:55:14;;;;;;;35.65;12.80;;;;;;;;;;10384937;28;20316;-69
2021/10/08 23:00:17;;;;;;;37.75;12.70;;;;;;;;;;10387465;28;20077;-71
2021/10/08 23:05:25;;;;;;;34.25;13.48;;;;;;;;;;10394175;28;20565;-69
2021/10/08 23:10:38;;;;;;;35.95;11.77;;;;;;;;;;10388024;28;20076;-69
2021/10/08 23:15:43;;;;;;;36.17;13.48;;;;;;;;;;10384409;28;20406;-70
2021/10/08 23:20:47;;;;;;;35.25;12.52;;;;;;;;;;10390127;28;20358;-69
2021/10/08 23:25:50;;;;;;;38.17;12.77;;;;;;;;;;10384813;28;20662;-69
2021/10/08 23:30:53;;;;;;;37.42;12.48;;;;;;;;;;10391696;28;20041;-70
2021/10/08 23:35:57;;;;;;;39.70;12.18;;;;;;;;;;10389680;28;20435;-69
2021/10/08 23:40:59;;;;;;;;;;;;;;;;;;10393665;28;20077;-69
2021/10/08 23:46:02;;;;;;;30.90;11.70;;;;;;;;;;10382507;28;19937;-70
2021/10/08 23:51:06;;;;;;;36.17;13.15;;;;;;;;;;10387454;28;20045;-70
2021/10/08 23:56:09;;;;;;;37.35;12.32;;;;;;;;;;10392741;28;20470;-69
